sensor_id;sensor_type;location;lat;lon;timestamp;P1;durP1;ratioP1;P2;durP2;ratioP2
62574;SDS011;53112;45.602;11.904;2022-10-17T00:01:55;37.40;;;23.92;;
62574;SDS011;53112;45.602;11.904;2022-10-17T00:04:21;45.35;;;27.48;;
62574;SDS011;53112;45.602;11.904;2022-10-17T00:06:47;56.22;;;32.45;;
62574;SDS011;53112;45.602;11.904;2022-10-17T00:09:13;47.35;;;29.92;;
62574;SDS011;53112;45.602;11.904;2022-10-17T00:11:39;44.22;;;27.08;;
62574;SDS011;53112;45.602;11.904;2022-10-17T00:14:04;44.33;;;26.35;;
62574;SDS011;53112;45.602;11.904;2022-10-17T00:16:32;48.58;;;29.70;;
62574;SDS011;53112;45.602;11.904;2022-10-17T00:19:01;49.72;;;30.17;;
62574;SDS011;53112;45.602;11.904;2022-10-17T00:21:28;45.95;;;28.60;;
62574;SDS011;53112;45.602;11.904;2022-10-17T00:23:54;37.35;;;24.42;;
62574;SDS011;53112;45.602;11.904;2022-10-17T00:26:21;41.70;;;26.73;;
62574;SDS011;53112;45.602;11.904;2022-10-17T00:28:47;38.72;;;24.77;;
62574;SDS011;53112;45.602;11.904;2022-10-17T00:31:15;45.80;;;29.50;;
62574;SDS011;53112;45.602;11.904;2022-10-17T00:33:42;42.03;;;26.75;;
62574;SDS011;53112;45.602;11.904;2022-10-17T00:36:13;40.10;;;26.10;;
62574;SDS011;53112;45.602;11.904;2022-10-17T00:38:51;44.58;;;27.33;;
62574;SDS011;53112;45.602;11.904;2022-10-17T00:41:21;39.58;;;25.80;;
62574;SDS011;53112;45.602;11.904;2022-10-17T00:46:54;41.58;;;26.38;;
62574;SDS011;53112;45.602;11.904;2022-10-17T00:49:21;37.92;;;23.70;;
62574;SDS011;53112;45.602;11.904;2022-10-17T00:51:54;37.97;;;24.13;;
62574;SDS011;53112;45.602;11.904;2022-10-17T00:54:39;43.58;;;27.63;;
62574;SDS011;53112;45.602;11.904;2022-10-17T00:57:08;41.08;;;25.58;;
62574;SDS011;53112;45.602;11.904;2022-10-17T00:59:36;36.85;;;24.45;;
62574;SDS011;53112;45.602;11.904;2022-10-17T01:02:11;41.53;;;25.50;;
62574;SDS011;53112;45.602;11.904;2022-10-17T01:04:41;38.85;;;23.67;;
62574;SDS011;53112;45.602;11.904;2022-10-17T01:07:09;37.72;;;24.42;;
62574;SDS011;53112;45.602;11.904;2022-10-17T01:09:35;39.63;;;24.48;;
62574;SDS011;53112;45.602;11.904;2022-10-17T01:14:44;45.13;;;27.92;;
62574;SDS011;53112;45.602;11.904;2022-10-17T01:31:59;42.80;;;27.10;;
62574;SDS011;53112;45.602;11.904;2022-10-17T01:34:47;50.72;;;30.00;;
62574;SDS011;53112;45.602;11.904;2022-10-17T01:37:20;44.10;;;28.15;;
62574;SDS011;53112;45.602;11.904;2022-10-17T01:40:02;46.90;;;27.52;;
62574;SDS011;53112;45.602;11.904;2022-10-17T01:42:58;45.67;;;25.98;;
62574;SDS011;53112;45.602;11.904;2022-10-17T01:45:42;39.28;;;24.60;;
62574;SDS011;53112;45.602;11.904;2022-10-17T01:48:17;43.97;;;27.15;;
62574;SDS011;53112;45.602;11.904;2022-10-17T01:50:50;44.25;;;27.58;;
62574;SDS011;53112;45.602;11.904;2022-10-17T01:53:27;48.85;;;29.10;;
62574;SDS011;53112;45.602;11.904;2022-10-17T01:55:58;48.63;;;29.42;;
62574;SDS011;53112;45.602;11.904;2022-10-17T01:58:28;44.35;;;27.60;;
62574;SDS011;53112;45.602;11.904;2022-10-17T02:01:05;43.67;;;26.52;;
62574;SDS011;53112;45.602;11.904;2022-10-17T02:03:35;38.75;;;25.10;;
62574;SDS011;53112;45.602;11.904;2022-10-17T02:06:02;38.10;;;24.38;;
62574;SDS011;53112;45.602;11.904;2022-10-17T02:08:43;35.15;;;22.63;;
62574;SDS011;53112;45.602;11.904;2022-10-17T02:11:21;35.38;;;22.95;;
62574;SDS011;53112;45.602;11.904;2022-10-17T02:13:57;36.60;;;22.90;;
62574;SDS011;53112;45.602;11.904;2022-10-17T02:16:50;34.13;;;21.58;;
62574;SDS011;53112;45.602;11.904;2022-10-17T02:27:34;22.23;;;16.42;;
62574;SDS011;53112;45.602;11.904;2022-10-17T02:35:03;26.73;;;17.60;;
62574;SDS011;53112;45.602;11.904;2022-10-17T02:37:34;26.92;;;17.83;;
62574;SDS011;53112;45.602;11.904;2022-10-17T02:40:01;34.00;;;21.90;;
62574;SDS011;53112;45.602;11.904;2022-10-17T02:42:29;35.10;;;21.45;;
62574;SDS011;53112;45.602;11.904;2022-10-17T02:44:58;33.15;;;20.38;;
62574;SDS011;53112;45.602;11.904;2022-10-17T02:47:34;36.38;;;21.38;;
62574;SDS011;53112;45.602;11.904;2022-10-17T02:50:12;35.67;;;21.77;;
62574;SDS011;53112;45.602;11.904;2022-10-17T02:52:41;40.33;;;23.35;;
62574;SDS011;53112;45.602;11.904;2022-10-17T02:55:17;33.67;;;20.70;;
62574;SDS011;53112;45.602;11.904;2022-10-17T02:57:51;36.25;;;23.27;;
62574;SDS011;53112;45.602;11.904;2022-10-17T03:00:20;37.70;;;24.30;;
62574;SDS011;53112;45.602;11.904;2022-10-17T03:02:48;37.70;;;22.92;;
62574;SDS011;53112;45.602;11.904;2022-10-17T03:05:21;36.92;;;22.90;;
62574;SDS011;53112;45.602;11.904;2022-10-17T03:07:51;38.80;;;23.48;;
62574;SDS011;53112;45.602;11.904;2022-10-17T03:10:17;34.45;;;22.45;;
62574;SDS011;53112;45.602;11.904;2022-10-17T03:12:44;28.73;;;18.83;;
62574;SDS011;53112;45.602;11.904;2022-10-17T03:15:10;31.13;;;21.02;;
62574;SDS011;53112;45.602;11.904;2022-10-17T03:17:37;33.72;;;20.88;;
62574;SDS011;53112;45.602;11.904;2022-10-17T03:20:03;33.97;;;20.90;;
62574;SDS011;53112;45.602;11.904;2022-10-17T03:22:31;36.83;;;21.67;;
62574;SDS011;53112;45.602;11.904;2022-10-17T03:24:58;35.22;;;21.20;;
62574;SDS011;53112;45.602;11.904;2022-10-17T03:27:24;28.48;;;19.10;;
62574;SDS011;53112;45.602;11.904;2022-10-17T03:29:50;32.95;;;20.00;;
62574;SDS011;53112;45.602;11.904;2022-10-17T03:32:16;35.95;;;21.95;;
62574;SDS011;53112;45.602;11.904;2022-10-17T03:34:42;32.90;;;20.65;;
62574;SDS011;53112;45.602;11.904;2022-10-17T03:37:08;36.95;;;22.30;;
62574;SDS011;53112;45.602;11.904;2022-10-17T03:39:34;39.17;;;23.65;;
62574;SDS011;53112;45.602;11.904;2022-10-17T03:42:00;46.78;;;28.23;;
62574;SDS011;53112;45.602;11.904;2022-10-17T03:44:26;47.30;;;27.45;;
62574;SDS011;53112;45.602;11.904;2022-10-17T03:46:52;38.67;;;24.70;;
62574;SDS011;53112;45.602;11.904;2022-10-17T03:49:18;37.17;;;23.50;;
62574;SDS011;53112;45.602;11.904;2022-10-17T03:51:44;37.70;;;22.38;;
62574;SDS011;53112;45.602;11.904;2022-10-17T03:54:10;37.60;;;22.55;;
62574;SDS011;53112;45.602;11.904;2022-10-17T03:56:35;37.50;;;22.92;;
62574;SDS011;53112;45.602;11.904;2022-10-17T03:59:01;40.67;;;25.35;;
62574;SDS011;53112;45.602;11.904;2022-10-17T04:01:28;37.47;;;22.80;;
62574;SDS011;53112;45.602;11.904;2022-10-17T04:03:54;37.42;;;22.33;;
62574;SDS011;53112;45.602;11.904;2022-10-17T04:06:22;32.92;;;21.00;;
62574;SDS011;53112;45.602;11.904;2022-10-17T04:08:48;36.05;;;20.70;;
62574;SDS011;53112;45.602;11.904;2022-10-17T04:11:15;32.03;;;19.58;;
62574;SDS011;53112;45.602;11.904;2022-10-17T04:13:44;30.75;;;18.55;;
62574;SDS011;53112;45.602;11.904;2022-10-17T04:16:11;31.67;;;19.30;;
62574;SDS011;53112;45.602;11.904;2022-10-17T04:18:39;37.05;;;21.85;;
62574;SDS011;53112;45.602;11.904;2022-10-17T04:21:08;32.15;;;20.60;;
62574;SDS011;53112;45.602;11.904;2022-10-17T04:23:35;40.47;;;24.98;;
62574;SDS011;53112;45.602;11.904;2022-10-17T04:26:01;37.65;;;22.63;;
62574;SDS011;53112;45.602;11.904;2022-10-17T04:28:29;36.83;;;23.15;;
62574;SDS011;53112;45.602;11.904;2022-10-17T04:30:57;40.05;;;24.45;;
62574;SDS011;53112;45.602;11.904;2022-10-17T04:33:24;40.78;;;24.88;;
62574;SDS011;53112;45.602;11.904;2022-10-17T04:35:57;39.83;;;23.15;;
62574;SDS011;53112;45.602;11.904;2022-10-17T04:38:23;37.67;;;24.02;;
62574;SDS011;53112;45.602;11.904;2022-10-17T04:40:50;37.33;;;23.38;;
62574;SDS011;53112;45.602;11.904;2022-10-17T04:43:16;36.22;;;22.67;;
62574;SDS011;53112;45.602;11.904;2022-10-17T04:45:42;39.22;;;23.67;;
62574;SDS011;53112;45.602;11.904;2022-10-17T04:48:08;37.05;;;23.75;;
62574;SDS011;53112;45.602;11.904;2022-10-17T04:50:34;36.78;;;22.73;;
62574;SDS011;53112;45.602;11.904;2022-10-17T04:53:00;36.40;;;22.45;;
62574;SDS011;53112;45.602;11.904;2022-10-17T04:55:26;35.15;;;21.55;;
62574;SDS011;53112;45.602;11.904;2022-10-17T04:57:52;38.58;;;24.00;;
62574;SDS011;53112;45.602;11.904;2022-10-17T05:00:18;37.08;;;22.77;;
62574;SDS011;53112;45.602;11.904;2022-10-17T05:02:44;38.22;;;23.55;;
62574;SDS011;53112;45.602;11.904;2022-10-17T05:05:11;36.70;;;22.85;;
62574;SDS011;53112;45.602;11.904;2022-10-17T05:07:40;38.72;;;24.08;;
62574;SDS011;53112;45.602;11.904;2022-10-17T05:10:06;35.53;;;22.92;;
62574;SDS011;53112;45.602;11.904;2022-10-17T05:12:33;38.63;;;23.70;;
62574;SDS011;53112;45.602;11.904;2022-10-17T05:14:59;38.60;;;24.45;;
62574;SDS011;53112;45.602;11.904;2022-10-17T05:17:28;41.72;;;25.15;;
62574;SDS011;53112;45.602;11.904;2022-10-17T05:19:53;41.75;;;24.98;;
62574;SDS011;53112;45.602;11.904;2022-10-17T05:22:19;39.42;;;23.38;;
62574;SDS011;53112;45.602;11.904;2022-10-17T05:24:45;37.42;;;22.75;;
62574;SDS011;53112;45.602;11.904;2022-10-17T05:27:12;40.63;;;24.95;;
62574;SDS011;53112;45.602;11.904;2022-10-17T05:29:38;50.70;;;27.48;;
62574;SDS011;53112;45.602;11.904;2022-10-17T05:32:04;45.95;;;27.70;;
62574;SDS011;53112;45.602;11.904;2022-10-17T05:34:30;42.42;;;26.17;;
62574;SDS011;53112;45.602;11.904;2022-10-17T05:36:57;40.65;;;24.50;;
62574;SDS011;53112;45.602;11.904;2022-10-17T05:39:23;38.05;;;22.92;;
62574;SDS011;53112;45.602;11.904;2022-10-17T05:41:50;34.38;;;20.38;;
62574;SDS011;53112;45.602;11.904;2022-10-17T05:44:16;31.65;;;19.70;;
62574;SDS011;53112;45.602;11.904;2022-10-17T05:46:42;29.92;;;19.00;;
62574;SDS011;53112;45.602;11.904;2022-10-17T05:49:09;24.83;;;16.65;;
62574;SDS011;53112;45.602;11.904;2022-10-17T05:51:35;30.48;;;18.08;;
62574;SDS011;53112;45.602;11.904;2022-10-17T05:54:03;27.65;;;18.45;;
62574;SDS011;53112;45.602;11.904;2022-10-17T05:56:30;29.58;;;18.80;;
62574;SDS011;53112;45.602;11.904;2022-10-17T05:58:56;31.63;;;19.95;;
62574;SDS011;53112;45.602;11.904;2022-10-17T06:01:22;31.67;;;19.90;;
62574;SDS011;53112;45.602;11.904;2022-10-17T06:03:48;44.45;;;26.20;;
62574;SDS011;53112;45.602;11.904;2022-10-17T06:06:15;40.28;;;23.83;;
62574;SDS011;53112;45.602;11.904;2022-10-17T06:08:42;33.45;;;21.80;;
62574;SDS011;53112;45.602;11.904;2022-10-17T06:11:09;40.17;;;25.30;;
62574;SDS011;53112;45.602;11.904;2022-10-17T06:13:36;40.80;;;24.60;;
62574;SDS011;53112;45.602;11.904;2022-10-17T06:16:03;42.15;;;23.70;;
62574;SDS011;53112;45.602;11.904;2022-10-17T06:18:30;38.03;;;22.90;;
62574;SDS011;53112;45.602;11.904;2022-10-17T06:21:03;38.10;;;21.63;;
62574;SDS011;53112;45.602;11.904;2022-10-17T06:23:31;45.88;;;24.23;;
62574;SDS011;53112;45.602;11.904;2022-10-17T06:26:01;40.83;;;25.20;;
62574;SDS011;53112;45.602;11.904;2022-10-17T06:28:29;44.90;;;25.35;;
62574;SDS011;53112;45.602;11.904;2022-10-17T06:30:55;42.60;;;24.38;;
62574;SDS011;53112;45.602;11.904;2022-10-17T06:33:21;36.88;;;22.50;;
62574;SDS011;53112;45.602;11.904;2022-10-17T06:35:54;37.35;;;22.42;;
62574;SDS011;53112;45.602;11.904;2022-10-17T06:38:20;33.25;;;20.00;;
62574;SDS011;53112;45.602;11.904;2022-10-17T06:40:47;40.65;;;23.95;;
62574;SDS011;53112;45.602;11.904;2022-10-17T06:43:13;47.65;;;28.02;;
62574;SDS011;53112;45.602;11.904;2022-10-17T06:45:39;48.60;;;27.33;;
62574;SDS011;53112;45.602;11.904;2022-10-17T06:48:06;44.72;;;26.65;;
62574;SDS011;53112;45.602;11.904;2022-10-17T06:50:33;38.97;;;22.92;;
62574;SDS011;53112;45.602;11.904;2022-10-17T06:52:59;38.05;;;22.83;;
62574;SDS011;53112;45.602;11.904;2022-10-17T06:55:25;38.50;;;23.25;;
62574;SDS011;53112;45.602;11.904;2022-10-17T06:57:53;35.42;;;21.65;;
62574;SDS011;53112;45.602;11.904;2022-10-17T07:00:20;37.00;;;23.17;;
62574;SDS011;53112;45.602;11.904;2022-10-17T07:02:47;39.45;;;22.77;;
62574;SDS011;53112;45.602;11.904;2022-10-17T07:05:14;44.70;;;25.13;;
62574;SDS011;53112;45.602;11.904;2022-10-17T07:07:40;47.00;;;28.00;;
62574;SDS011;53112;45.602;11.904;2022-10-17T07:10:06;46.20;;;27.40;;
62574;SDS011;53112;45.602;11.904;2022-10-17T07:12:33;42.83;;;25.48;;
62574;SDS011;53112;45.602;11.904;2022-10-17T07:15:00;44.28;;;27.05;;
62574;SDS011;53112;45.602;11.904;2022-10-17T07:17:28;47.25;;;28.25;;
62574;SDS011;53112;45.602;11.904;2022-10-17T07:19:55;48.17;;;28.05;;
62574;SDS011;53112;45.602;11.904;2022-10-17T07:22:21;44.08;;;26.33;;
62574;SDS011;53112;45.602;11.904;2022-10-17T07:24:47;43.00;;;25.75;;
62574;SDS011;53112;45.602;11.904;2022-10-17T07:27:13;44.92;;;26.10;;
62574;SDS011;53112;45.602;11.904;2022-10-17T07:29:39;39.72;;;24.73;;
62574;SDS011;53112;45.602;11.904;2022-10-17T07:32:06;54.25;;;31.52;;
62574;SDS011;53112;45.602;11.904;2022-10-17T07:34:33;47.45;;;27.92;;
62574;SDS011;53112;45.602;11.904;2022-10-17T07:37:00;54.75;;;32.13;;
62574;SDS011;53112;45.602;11.904;2022-10-17T07:39:26;43.67;;;26.92;;
62574;SDS011;53112;45.602;11.904;2022-10-17T07:41:53;49.03;;;29.45;;
62574;SDS011;53112;45.602;11.904;2022-10-17T07:44:19;48.45;;;27.92;;
62574;SDS011;53112;45.602;11.904;2022-10-17T07:46:45;46.00;;;27.33;;
62574;SDS011;53112;45.602;11.904;2022-10-17T07:49:11;49.92;;;30.38;;
62574;SDS011;53112;45.602;11.904;2022-10-17T07:51:37;49.17;;;30.83;;
62574;SDS011;53112;45.602;11.904;2022-10-17T07:54:03;48.75;;;29.48;;
62574;SDS011;53112;45.602;11.904;2022-10-17T07:56:30;44.38;;;27.48;;
62574;SDS011;53112;45.602;11.904;2022-10-17T07:58:57;43.70;;;27.45;;
62574;SDS011;53112;45.602;11.904;2022-10-17T08:01:23;48.42;;;29.70;;
62574;SDS011;53112;45.602;11.904;2022-10-17T08:03:50;43.67;;;28.27;;
62574;SDS011;53112;45.602;11.904;2022-10-17T08:06:16;45.90;;;29.45;;
62574;SDS011;53112;45.602;11.904;2022-10-17T08:08:43;51.63;;;30.58;;
62574;SDS011;53112;45.602;11.904;2022-10-17T08:11:10;49.67;;;31.52;;
62574;SDS011;53112;45.602;11.904;2022-10-17T08:13:38;51.95;;;31.30;;
62574;SDS011;53112;45.602;11.904;2022-10-17T08:16:05;53.10;;;32.33;;
62574;SDS011;53112;45.602;11.904;2022-10-17T08:18:34;53.67;;;32.97;;
62574;SDS011;53112;45.602;11.904;2022-10-17T08:21:01;48.33;;;30.55;;
62574;SDS011;53112;45.602;11.904;2022-10-17T08:23:33;51.70;;;31.05;;
62574;SDS011;53112;45.602;11.904;2022-10-17T08:26:00;47.03;;;30.35;;
62574;SDS011;53112;45.602;11.904;2022-10-17T08:28:28;43.30;;;27.80;;
62574;SDS011;53112;45.602;11.904;2022-10-17T08:31:01;42.75;;;27.25;;
62574;SDS011;53112;45.602;11.904;2022-10-17T08:33:31;41.22;;;26.80;;
62574;SDS011;53112;45.602;11.904;2022-10-17T08:36:01;46.67;;;28.15;;
62574;SDS011;53112;45.602;11.904;2022-10-17T08:38:28;40.97;;;27.25;;
62574;SDS011;53112;45.602;11.904;2022-10-17T08:40:56;40.75;;;26.00;;
62574;SDS011;53112;45.602;11.904;2022-10-17T08:43:44;46.65;;;29.13;;
62574;SDS011;53112;45.602;11.904;2022-10-17T08:46:15;43.78;;;27.05;;
62574;SDS011;53112;45.602;11.904;2022-10-17T08:48:42;46.05;;;29.63;;
62574;SDS011;53112;45.602;11.904;2022-10-17T08:53:39;46.50;;;29.30;;
62574;SDS011;53112;45.602;11.904;2022-10-17T08:58:45;43.67;;;28.35;;
62574;SDS011;53112;45.602;11.904;2022-10-17T09:17:23;40.20;;;26.23;;
62574;SDS011;53112;45.602;11.904;2022-10-17T09:19:59;37.60;;;23.58;;
62574;SDS011;53112;45.602;11.904;2022-10-17T09:22:31;37.30;;;24.25;;
62574;SDS011;53112;45.602;11.904;2022-10-17T09:25:02;38.47;;;26.00;;
62574;SDS011;53112;45.602;11.904;2022-10-17T09:33:15;36.50;;;23.50;;
62574;SDS011;53112;45.602;11.904;2022-10-17T09:35:42;33.13;;;23.80;;
62574;SDS011;53112;45.602;11.904;2022-10-17T09:38:17;34.20;;;23.20;;
62574;SDS011;53112;45.602;11.904;2022-10-17T09:40:55;31.35;;;22.10;;
62574;SDS011;53112;45.602;11.904;2022-10-17T09:43:24;31.63;;;22.27;;
62574;SDS011;53112;45.602;11.904;2022-10-17T09:46:14;38.70;;;26.77;;
62574;SDS011;53112;45.602;11.904;2022-10-17T09:49:00;39.83;;;27.45;;
62574;SDS011;53112;45.602;11.904;2022-10-17T09:51:38;33.42;;;24.15;;
62574;SDS011;53112;45.602;11.904;2022-10-17T09:54:12;33.25;;;22.58;;
62574;SDS011;53112;45.602;11.904;2022-10-17T09:57:01;36.78;;;24.67;;
62574;SDS011;53112;45.602;11.904;2022-10-17T09:59:31;33.00;;;23.42;;
62574;SDS011;53112;45.602;11.904;2022-10-17T10:02:20;39.85;;;26.77;;
62574;SDS011;53112;45.602;11.904;2022-10-17T10:04:51;36.17;;;26.10;;
62574;SDS011;53112;45.602;11.904;2022-10-17T10:07:17;38.30;;;26.35;;
62574;SDS011;53112;45.602;11.904;2022-10-17T10:09:45;37.25;;;26.27;;
62574;SDS011;53112;45.602;11.904;2022-10-17T10:12:20;39.05;;;26.63;;
62574;SDS011;53112;45.602;11.904;2022-10-17T10:14:47;35.58;;;25.00;;
62574;SDS011;53112;45.602;11.904;2022-10-17T10:17:27;39.00;;;27.35;;
62574;SDS011;53112;45.602;11.904;2022-10-17T10:20:25;34.03;;;23.73;;
62574;SDS011;53112;45.602;11.904;2022-10-17T10:25:47;35.90;;;25.02;;
62574;SDS011;53112;45.602;11.904;2022-10-17T10:28:17;33.83;;;22.95;;
62574;SDS011;53112;45.602;11.904;2022-10-17T10:30:46;34.00;;;24.38;;
62574;SDS011;53112;45.602;11.904;2022-10-17T10:33:17;32.10;;;23.20;;
62574;SDS011;53112;45.602;11.904;2022-10-17T10:35:50;31.83;;;21.52;;
62574;SDS011;53112;45.602;11.904;2022-10-17T10:38:22;30.60;;;22.10;;
62574;SDS011;53112;45.602;11.904;2022-10-17T10:40:53;39.30;;;25.42;;
62574;SDS011;53112;45.602;11.904;2022-10-17T10:43:37;37.00;;;25.27;;
62574;SDS011;53112;45.602;11.904;2022-10-17T10:46:18;32.15;;;23.40;;
62574;SDS011;53112;45.602;11.904;2022-10-17T10:48:54;35.13;;;24.55;;
62574;SDS011;53112;45.602;11.904;2022-10-17T10:54:21;31.23;;;21.48;;
62574;SDS011;53112;45.602;11.904;2022-10-17T10:57:01;36.45;;;25.95;;
62574;SDS011;53112;45.602;11.904;2022-10-17T11:00:31;38.30;;;27.48;;
62574;SDS011;53112;45.602;11.904;2022-10-17T11:02:39;36.58;;;25.05;;
62574;SDS011;53112;45.602;11.904;2022-10-17T11:05:43;36.13;;;24.98;;
62574;SDS011;53112;45.602;11.904;2022-10-17T11:08:05;31.20;;;23.52;;
62574;SDS011;53112;45.602;11.904;2022-10-17T11:10:52;39.92;;;26.95;;
62574;SDS011;53112;45.602;11.904;2022-10-17T11:13:31;36.25;;;25.90;;
62574;SDS011;53112;45.602;11.904;2022-10-17T11:16:13;40.40;;;28.75;;
62574;SDS011;53112;45.602;11.904;2022-10-17T11:18:46;37.97;;;24.45;;
62574;SDS011;53112;45.602;11.904;2022-10-17T11:21:21;29.20;;;20.85;;
62574;SDS011;53112;45.602;11.904;2022-10-17T11:27:05;31.13;;;22.42;;
62574;SDS011;53112;45.602;11.904;2022-10-17T11:29:35;27.63;;;20.80;;
62574;SDS011;53112;45.602;11.904;2022-10-17T11:32:26;32.83;;;24.65;;
62574;SDS011;53112;45.602;11.904;2022-10-17T11:35:02;27.17;;;21.30;;
62574;SDS011;53112;45.602;11.904;2022-10-17T11:37:45;31.80;;;23.38;;
62574;SDS011;53112;45.602;11.904;2022-10-17T11:40:33;29.02;;;22.30;;
62574;SDS011;53112;45.602;11.904;2022-10-17T11:43:04;29.92;;;22.45;;
62574;SDS011;53112;45.602;11.904;2022-10-17T11:46:04;32.50;;;24.23;;
62574;SDS011;53112;45.602;11.904;2022-10-17T11:51:24;24.65;;;19.35;;
62574;SDS011;53112;45.602;11.904;2022-10-17T11:53:53;28.98;;;21.85;;
62574;SDS011;53112;45.602;11.904;2022-10-17T11:56:32;29.25;;;20.80;;
62574;SDS011;53112;45.602;11.904;2022-10-17T11:59:18;26.65;;;20.40;;
62574;SDS011;53112;45.602;11.904;2022-10-17T12:07:59;28.52;;;21.80;;
62574;SDS011;53112;45.602;11.904;2022-10-17T12:15:56;34.28;;;25.10;;
62574;SDS011;53112;45.602;11.904;2022-10-17T12:18:42;32.13;;;23.52;;
62574;SDS011;53112;45.602;11.904;2022-10-17T12:21:09;30.40;;;22.33;;
62574;SDS011;53112;45.602;11.904;2022-10-17T12:23:36;31.92;;;23.13;;
62574;SDS011;53112;45.602;11.904;2022-10-17T12:26:08;29.02;;;21.52;;
62574;SDS011;53112;45.602;11.904;2022-10-17T12:28:45;22.55;;;17.70;;
62574;SDS011;53112;45.602;11.904;2022-10-17T12:52:12;27.75;;;20.75;;
62574;SDS011;53112;45.602;11.904;2022-10-17T13:02:43;26.35;;;19.45;;
62574;SDS011;53112;45.602;11.904;2022-10-17T13:05:13;24.63;;;19.00;;
62574;SDS011;53112;45.602;11.904;2022-10-17T13:07:49;21.15;;;16.38;;
62574;SDS011;53112;45.602;11.904;2022-10-17T13:10:23;29.90;;;21.60;;
62574;SDS011;53112;45.602;11.904;2022-10-17T13:13:05;19.08;;;15.45;;
62574;SDS011;53112;45.602;11.904;2022-10-17T13:15:39;28.35;;;21.10;;
62574;SDS011;53112;45.602;11.904;2022-10-17T13:18:15;28.63;;;21.25;;
62574;SDS011;53112;45.602;11.904;2022-10-17T13:20:53;23.38;;;18.33;;
62574;SDS011;53112;45.602;11.904;2022-10-17T13:23:24;21.92;;;17.02;;
62574;SDS011;53112;45.602;11.904;2022-10-17T13:28:36;27.77;;;19.35;;
62574;SDS011;53112;45.602;11.904;2022-10-17T13:31:02;24.00;;;18.27;;
62574;SDS011;53112;45.602;11.904;2022-10-17T13:36:05;19.50;;;14.70;;
62574;SDS011;53112;45.602;11.904;2022-10-17T13:38:37;18.88;;;14.82;;
62574;SDS011;53112;45.602;11.904;2022-10-17T13:41:03;27.50;;;20.02;;
62574;SDS011;53112;45.602;11.904;2022-10-17T13:43:38;24.20;;;15.73;;
62574;SDS011;53112;45.602;11.904;2022-10-17T13:46:04;23.40;;;18.23;;
62574;SDS011;53112;45.602;11.904;2022-10-17T13:48:34;22.70;;;17.40;;
62574;SDS011;53112;45.602;11.904;2022-10-17T13:51:02;22.25;;;17.60;;
62574;SDS011;53112;45.602;11.904;2022-10-17T13:53:31;17.77;;;14.07;;
62574;SDS011;53112;45.602;11.904;2022-10-17T13:58:40;32.20;;;21.13;;
62574;SDS011;53112;45.602;11.904;2022-10-17T14:01:09;18.05;;;14.43;;
62574;SDS011;53112;45.602;11.904;2022-10-17T14:03:37;15.50;;;13.02;;
62574;SDS011;53112;45.602;11.904;2022-10-17T14:06:10;17.98;;;14.60;;
62574;SDS011;53112;45.602;11.904;2022-10-17T14:11:12;19.88;;;14.88;;
62574;SDS011;53112;45.602;11.904;2022-10-17T14:13:48;41.72;;;34.30;;
62574;SDS011;53112;45.602;11.904;2022-10-17T14:16:16;35.25;;;27.08;;
62574;SDS011;53112;45.602;11.904;2022-10-17T14:18:44;28.08;;;20.17;;
62574;SDS011;53112;45.602;11.904;2022-10-17T14:21:22;20.08;;;16.50;;
62574;SDS011;53112;45.602;11.904;2022-10-17T14:23:50;22.25;;;16.85;;
62574;SDS011;53112;45.602;11.904;2022-10-17T14:26:21;25.40;;;18.20;;
62574;SDS011;53112;45.602;11.904;2022-10-17T14:29:01;27.48;;;18.38;;
62574;SDS011;53112;45.602;11.904;2022-10-17T14:31:31;22.70;;;17.10;;
62574;SDS011;53112;45.602;11.904;2022-10-17T14:34:00;20.60;;;15.20;;
62574;SDS011;53112;45.602;11.904;2022-10-17T14:36:38;19.58;;;15.38;;
62574;SDS011;53112;45.602;11.904;2022-10-17T14:39:15;20.92;;;16.60;;
62574;SDS011;53112;45.602;11.904;2022-10-17T14:41:45;23.52;;;18.10;;
62574;SDS011;53112;45.602;11.904;2022-10-17T14:44:16;27.45;;;19.67;;
62574;SDS011;53112;45.602;11.904;2022-10-17T14:46:46;19.42;;;15.80;;
62574;SDS011;53112;45.602;11.904;2022-10-17T14:49:16;21.33;;;16.23;;
62574;SDS011;53112;45.602;11.904;2022-10-17T14:54:34;20.77;;;14.60;;
62574;SDS011;53112;45.602;11.904;2022-10-17T14:57:16;17.45;;;13.75;;
62574;SDS011;53112;45.602;11.904;2022-10-17T14:59:51;18.40;;;14.43;;
62574;SDS011;53112;45.602;11.904;2022-10-17T15:02:19;18.95;;;14.45;;
62574;SDS011;53112;45.602;11.904;2022-10-17T15:04:45;19.48;;;13.57;;
62574;SDS011;53112;45.602;11.904;2022-10-17T15:07:14;18.58;;;14.23;;
62574;SDS011;53112;45.602;11.904;2022-10-17T15:09:42;19.45;;;14.18;;
62574;SDS011;53112;45.602;11.904;2022-10-17T15:12:13;19.02;;;14.13;;
62574;SDS011;53112;45.602;11.904;2022-10-17T15:14:42;18.30;;;15.00;;
62574;SDS011;53112;45.602;11.904;2022-10-17T15:17:11;19.63;;;15.13;;
62574;SDS011;53112;45.602;11.904;2022-10-17T15:19:39;22.17;;;15.77;;
62574;SDS011;53112;45.602;11.904;2022-10-17T15:22:06;19.27;;;14.05;;
62574;SDS011;53112;45.602;11.904;2022-10-17T15:24:31;21.35;;;16.13;;
62574;SDS011;53112;45.602;11.904;2022-10-17T15:26:58;17.20;;;13.23;;
62574;SDS011;53112;45.602;11.904;2022-10-17T15:29:23;22.75;;;15.55;;
62574;SDS011;53112;45.602;11.904;2022-10-17T15:31:50;18.20;;;13.50;;
62574;SDS011;53112;45.602;11.904;2022-10-17T15:34:15;22.60;;;15.00;;
62574;SDS011;53112;45.602;11.904;2022-10-17T15:36:41;18.48;;;14.02;;
62574;SDS011;53112;45.602;11.904;2022-10-17T15:39:14;20.15;;;14.70;;
62574;SDS011;53112;45.602;11.904;2022-10-17T15:41:40;18.00;;;13.55;;
62574;SDS011;53112;45.602;11.904;2022-10-17T15:44:06;18.63;;;13.75;;
62574;SDS011;53112;45.602;11.904;2022-10-17T15:46:33;17.40;;;13.50;;
62574;SDS011;53112;45.602;11.904;2022-10-17T15:49:00;16.00;;;12.85;;
62574;SDS011;53112;45.602;11.904;2022-10-17T15:51:34;18.17;;;13.43;;
62574;SDS011;53112;45.602;11.904;2022-10-17T15:54:00;16.60;;;13.18;;
62574;SDS011;53112;45.602;11.904;2022-10-17T15:56:27;17.40;;;13.13;;
62574;SDS011;53112;45.602;11.904;2022-10-17T15:59:02;15.63;;;12.45;;
62574;SDS011;53112;45.602;11.904;2022-10-17T16:01:29;16.45;;;12.45;;
62574;SDS011;53112;45.602;11.904;2022-10-17T16:03:57;18.38;;;13.95;;
62574;SDS011;53112;45.602;11.904;2022-10-17T16:06:23;18.70;;;13.32;;
62574;SDS011;53112;45.602;11.904;2022-10-17T16:08:49;20.35;;;14.57;;
62574;SDS011;53112;45.602;11.904;2022-10-17T16:13:59;17.42;;;13.40;;
62574;SDS011;53112;45.602;11.904;2022-10-17T16:16:30;22.27;;;15.43;;
62574;SDS011;53112;45.602;11.904;2022-10-17T16:18:56;21.40;;;14.75;;
62574;SDS011;53112;45.602;11.904;2022-10-17T16:21:26;21.33;;;15.13;;
62574;SDS011;53112;45.602;11.904;2022-10-17T16:23:54;18.73;;;13.73;;
62574;SDS011;53112;45.602;11.904;2022-10-17T16:26:20;21.35;;;15.57;;
62574;SDS011;53112;45.602;11.904;2022-10-17T16:28:46;21.67;;;14.23;;
62574;SDS011;53112;45.602;11.904;2022-10-17T16:31:17;19.30;;;14.50;;
62574;SDS011;53112;45.602;11.904;2022-10-17T16:33:56;19.27;;;14.10;;
62574;SDS011;53112;45.602;11.904;2022-10-17T16:36:24;21.27;;;13.68;;